createdAt,value
2022-12-06T00:03:37.463Z,34.38
2022-12-06T00:08:40.906Z,35.25
2022-12-06T00:13:45.075Z,31.95
2022-12-06T00:18:48.697Z,34.20
2022-12-06T00:23:54.000Z,33.30
2022-12-06T00:28:59.921Z,35.15
2022-12-06T00:34:02.751Z,32.67
2022-12-06T00:39:07.707Z,37.42
2022-12-06T00:44:12.774Z,30.75
2022-12-06T00:49:15.603Z,33.25
2022-12-06T00:54:18.396Z,30.33
2022-12-06T00:59:22.594Z,29.35
2022-12-06T01:04:25.409Z,31.70
2022-12-06T01:09:30.877Z,27.65
2022-12-06T01:14:34.963Z,28.73
2022-12-06T01:19:37.728Z,29.70
2022-12-06T01:24:40.506Z,30.88
2022-12-06T01:29:44.679Z,26.40
2022-12-06T01:34:52.023Z,25.77
2022-12-06T01:39:54.808Z,26.75
2022-12-06T01:44:59.504Z,24.85
2022-12-06T01:50:05.611Z,21.38
2022-12-06T01:55:10.662Z,17.58
2022-12-06T02:00:15.831Z,14.18
2022-12-06T02:05:19.169Z,12.40
2022-12-06T02:10:21.984Z,9.32
2022-12-06T02:15:37.171Z,9.27
2022-12-06T02:20:45.849Z,7.97
2022-12-06T02:26:17.056Z,7.47
2022-12-06T02:31:28.205Z,7.05
2022-12-06T02:36:39.788Z,5.72
2022-12-06T02:41:49.875Z,3.88
2022-12-06T02:46:56.548Z,4.95
2022-12-06T02:51:59.821Z,4.45
2022-12-06T02:57:02.558Z,4.03
2022-12-06T03:02:12.030Z,4.13
2022-12-06T03:07:29.599Z,4.60
2022-12-06T03:12:36.970Z,5.40
2022-12-06T03:17:47.906Z,5.65
2022-12-06T03:22:57.183Z,5.63
2022-12-06T03:28:01.747Z,6.20
2022-12-06T03:33:06.690Z,5.22
2022-12-06T03:38:12.984Z,5.82
2022-12-06T03:43:16.284Z,6.00
2022-12-06T03:48:23.651Z,5.45
2022-12-06T03:53:26.504Z,5.93
2022-12-06T03:58:29.277Z,6.22
2022-12-06T04:03:33.452Z,7.78
2022-12-06T04:08:36.423Z,7.75
2022-12-06T04:13:39.364Z,6.05
2022-12-06T04:18:43.455Z,7.32
2022-12-06T04:23:48.105Z,6.57
2022-12-06T04:29:10.323Z,8.15
2022-12-06T04:34:32.337Z,6.15
2022-12-06T04:39:35.467Z,6.20
2022-12-06T04:44:38.243Z,8.98
2022-12-06T04:49:42.376Z,6.28
2022-12-06T04:54:45.415Z,6.20
2022-12-06T04:59:49.368Z,6.72
2022-12-06T05:04:53.514Z,6.75
2022-12-06T05:09:56.298Z,6.95
2022-12-06T05:14:59.100Z,6.85
2022-12-06T05:20:03.224Z,7.13
2022-12-06T05:25:06.545Z,5.63
2022-12-06T05:30:10.648Z,7.50
2022-12-06T05:35:14.899Z,6.00
2022-12-06T05:40:17.944Z,6.55
2022-12-06T05:45:20.710Z,5.35
2022-12-06T05:50:24.989Z,5.28
2022-12-06T05:55:28.231Z,5.50
2022-12-06T06:00:32.240Z,6.18
2022-12-06T06:05:37.484Z,6.03
2022-12-06T06:10:40.276Z,5.57
2022-12-06T06:15:43.011Z,5.60
2022-12-06T06:20:52.565Z,4.60
2022-12-06T06:26:02.776Z,4.47
2022-12-06T06:31:09.207Z,4.22
2022-12-06T06:36:44.092Z,6.05
2022-12-06T06:41:50.420Z,4.85
2022-12-06T06:46:53.713Z,8.23
2022-12-06T06:51:56.505Z,7.10
2022-12-06T06:57:02.297Z,7.65
2022-12-06T07:02:05.098Z,9.85
2022-12-06T07:07:08.125Z,10.73
2022-12-06T07:12:12.507Z,9.65
2022-12-06T07:17:15.381Z,10.75
2022-12-06T07:22:18.268Z,10.38
2022-12-06T07:27:23.581Z,10.85
2022-12-06T07:32:26.355Z,11.55
2022-12-06T07:37:34.635Z,9.18
2022-12-06T07:43:10.541Z,10.77
2022-12-06T07:48:13.993Z,11.98
2022-12-06T07:53:17.990Z,10.50
2022-12-06T07:58:22.091Z,12.05
2022-12-06T08:03:24.959Z,11.73
2022-12-06T08:08:29.110Z,11.05
2022-12-06T08:13:34.716Z,11.18
2022-12-06T08:18:38.093Z,12.23
2022-12-06T08:23:40.848Z,10.82
2022-12-06T08:28:45.586Z,9.73
2022-12-06T08:33:48.399Z,11.98
2022-12-06T08:38:51.781Z,13.43
2022-12-06T08:43:56.322Z,11.98
2022-12-06T08:49:01.524Z,11.95
2022-12-06T08:54:05.228Z,14.85
2022-12-06T08:59:09.889Z,14.45
2022-12-06T09:04:13.405Z,16.42
2022-12-06T09:09:18.440Z,16.00
2022-12-06T09:14:23.243Z,16.73
2022-12-06T09:19:26.034Z,16.55
2022-12-06T09:24:28.853Z,15.20
2022-12-06T09:29:37.382Z,16.08
2022-12-06T09:34:43.084Z,16.13
2022-12-06T09:39:50.442Z,14.00
2022-12-06T09:45:25.939Z,14.45
2022-12-06T09:50:39.009Z,14.73
2022-12-06T09:55:55.111Z,16.58
2022-12-06T10:01:09.326Z,16.02
2022-12-06T10:06:15.624Z,15.60
2022-12-06T10:11:33.583Z,13.85
2022-12-06T10:16:55.170Z,15.57
2022-12-06T10:22:13.386Z,16.48
2022-12-06T10:27:24.787Z,15.48
2022-12-06T10:32:43.386Z,15.43
2022-12-06T10:37:59.114Z,15.68
2022-12-06T10:43:10.328Z,15.82
2022-12-06T10:48:21.043Z,15.60
2022-12-06T10:53:29.492Z,15.07
2022-12-06T11:03:43.701Z,13.13
2022-12-06T11:08:52.170Z,14.57
2022-12-06T11:19:11.692Z,14.77
2022-12-06T11:24:20.880Z,14.40
2022-12-06T11:29:23.707Z,14.57
2022-12-06T11:34:32.509Z,16.00
2022-12-06T11:39:35.721Z,12.85
2022-12-06T11:44:46.409Z,17.75
2022-12-06T11:49:56.724Z,14.82
2022-12-06T11:55:03.935Z,16.60
2022-12-06T12:00:18.771Z,17.65
2022-12-06T12:05:25.490Z,18.25
2022-12-06T12:10:33.436Z,19.88
2022-12-06T12:15:37.569Z,21.33
2022-12-06T12:20:47.302Z,19.90
2022-12-06T12:26:01.367Z,19.63
2022-12-06T12:31:11.300Z,18.15
2022-12-06T12:36:26.421Z,18.58
2022-12-06T12:41:34.041Z,15.07
2022-12-06T12:46:37.916Z,16.57
2022-12-06T12:51:47.850Z,13.32
2022-12-06T12:56:51.853Z,10.95
2022-12-06T13:01:59.619Z,10.13
2022-12-06T13:07:06.979Z,9.43
2022-12-06T13:12:16.249Z,9.70
2022-12-06T13:17:20.013Z,9.85
2022-12-06T13:22:29.123Z,9.25
2022-12-06T13:27:36.139Z,7.38
2022-12-06T13:32:44.026Z,8.55
2022-12-06T13:37:54.400Z,6.88
2022-12-06T13:42:57.136Z,7.22
2022-12-06T13:47:59.964Z,9.90
2022-12-06T13:53:04.902Z,7.07
2022-12-06T13:58:50.701Z,8.10
2022-12-06T14:03:56.905Z,6.93
2022-12-06T14:09:01.900Z,8.77
2022-12-06T14:14:08.855Z,10.75
2022-12-06T14:19:16.911Z,11.38
2022-12-06T14:24:29.798Z,7.22
2022-12-06T14:29:33.140Z,10.18
2022-12-06T14:34:37.451Z,6.38
2022-12-06T14:39:41.614Z,7.00
2022-12-06T14:44:49.005Z,7.40
2022-12-06T14:50:11.004Z,7.90
2022-12-06T14:55:19.755Z,8.98
2022-12-06T15:00:27.808Z,12.00
2022-12-06T15:10:39.666Z,8.13
2022-12-06T15:15:44.038Z,7.90
2022-12-06T15:20:47.448Z,9.95
2022-12-06T15:25:51.729Z,7.95
2022-12-06T15:30:54.698Z,7.32
2022-12-06T15:35:58.269Z,8.30
2022-12-06T15:41:02.472Z,8.25
2022-12-06T15:46:05.974Z,7.90
2022-12-06T15:51:18.895Z,8.40
2022-12-06T15:56:26.634Z,7.07
2022-12-06T16:01:33.443Z,7.35
2022-12-06T16:06:36.332Z,6.63
2022-12-06T16:11:40.824Z,8.05
2022-12-06T16:16:43.963Z,12.27
2022-12-06T16:21:55.114Z,7.72
2022-12-06T16:26:59.372Z,8.65
2022-12-06T16:32:02.366Z,8.48
2022-12-06T16:37:07.356Z,6.82
2022-12-06T16:42:11.435Z,8.13
2022-12-06T16:47:15.238Z,8.50
2022-12-06T16:52:18.516Z,8.57
2022-12-06T16:57:22.687Z,6.80
2022-12-06T17:02:30.174Z,7.38
2022-12-06T17:07:33.449Z,6.70
2022-12-06T17:12:37.922Z,7.00
2022-12-06T17:17:41.095Z,7.10
2022-12-06T17:22:44.114Z,7.55
2022-12-06T17:27:49.521Z,8.18
2022-12-06T17:32:52.277Z,9.00
2022-12-06T17:37:55.203Z,9.13
2022-12-06T17:43:02.193Z,7.18
2022-12-06T17:48:07.386Z,8.00
2022-12-06T17:53:10.833Z,6.85
2022-12-06T17:58:15.335Z,8.60
2022-12-06T18:03:33.512Z,8.38
2022-12-06T18:08:36.499Z,8.85
2022-12-06T18:13:40.787Z,9.88
2022-12-06T18:18:52.034Z,8.50
2022-12-06T18:24:20.496Z,10.95
2022-12-06T18:29:22.810Z,13.60
2022-12-06T18:34:26.268Z,15.15
2022-12-06T18:39:34.211Z,12.02
2022-12-06T18:44:44.707Z,16.50
2022-12-06T18:50:28.273Z,14.88
2022-12-06T18:55:59.573Z,14.75
2022-12-06T19:01:13.830Z,14.73
2022-12-06T19:06:18.821Z,10.77
2022-12-06T19:11:32.964Z,18.58
2022-12-06T19:16:42.517Z,10.65
2022-12-06T19:21:52.174Z,12.57
2022-12-06T19:27:03.094Z,13.65
2022-12-06T19:32:16.299Z,17.85
2022-12-06T19:37:26.825Z,15.85
2022-12-06T19:43:17.850Z,16.15
2022-12-06T19:48:55.028Z,14.27
2022-12-06T20:00:09.655Z,13.75
2022-12-06T20:05:19.027Z,15.65
2022-12-06T20:10:50.793Z,8.50
2022-12-06T20:16:30.916Z,9.50
2022-12-06T20:21:55.868Z,14.05
2022-12-06T20:27:11.340Z,11.82
2022-12-06T20:32:30.406Z,12.25
2022-12-06T20:37:43.384Z,9.98
2022-12-06T20:43:09.523Z,12.45
2022-12-06T20:48:24.991Z,12.52
2022-12-06T20:53:32.290Z,11.20
2022-12-06T20:58:38.352Z,11.98
2022-12-06T21:03:42.026Z,12.07
2022-12-06T21:08:47.506Z,14.50
2022-12-06T21:13:50.853Z,11.65
2022-12-06T21:19:03.977Z,12.02
2022-12-06T21:24:12.307Z,10.77
2022-12-06T21:29:20.847Z,11.50
2022-12-06T21:34:29.390Z,14.82
2022-12-06T21:39:37.244Z,14.43
2022-12-06T21:44:44.886Z,12.05
2022-12-06T21:49:50.274Z,12.82
2022-12-06T21:54:54.430Z,12.48
2022-12-06T21:59:57.417Z,12.35
2022-12-06T22:05:00.296Z,17.08
2022-12-06T22:10:05.343Z,16.25
2022-12-06T22:15:09.165Z,16.80
2022-12-06T22:20:12.551Z,18.35
2022-12-06T22:25:47.333Z,18.30
2022-12-06T22:30:50.194Z,16.65
2022-12-06T22:35:53.072Z,19.65
2022-12-06T22:41:03.679Z,17.48
2022-12-06T22:46:10.118Z,19.17
2022-12-06T22:51:24.759Z,18.52
2022-12-06T22:56:34.099Z,19.08
2022-12-06T23:01:37.191Z,18.95
2022-12-06T23:06:40.281Z,20.75
2022-12-06T23:11:45.860Z,23.92
2022-12-06T23:16:51.553Z,19.70
2022-12-06T23:21:54.503Z,23.95
2022-12-06T23:27:00.284Z,19.70
2022-12-06T23:32:05.537Z,23.13
2022-12-06T23:37:10.590Z,23.88
2022-12-06T23:42:20.778Z,21.98
2022-12-06T23:47:23.920Z,21.15
2022-12-06T23:52:29.949Z,23.20
2022-12-06T23:57:36.023Z,23.95
